sensor_id;sensor_type;location;lat;lon;timestamp;temperature;humidity
1379;DHT22;683;48.738;9.226;2022-12-20T00:01:07;3.40;99.90
1379;DHT22;683;48.738;9.226;2022-12-20T00:03:35;3.40;99.90
1379;DHT22;683;48.738;9.226;2022-12-20T00:06:03;3.30;99.90
1379;DHT22;683;48.738;9.226;2022-12-20T00:08:31;3.30;99.90
1379;DHT22;683;48.738;9.226;2022-12-20T00:11:01;3.30;99.90
1379;DHT22;683;48.738;9.226;2022-12-20T00:13:30;3.20;99.90
1379;DHT22;683;48.738;9.226;2022-12-20T00:16:07;3.20;99.90
1379;DHT22;683;48.738;9.226;2022-12-20T00:18:39;3.20;99.90
1379;DHT22;683;48.738;9.226;2022-12-20T00:21:08;3.30;99.90
1379;DHT22;683;48.738;9.226;2022-12-20T00:23:37;3.20;99.90
1379;DHT22;683;48.738;9.226;2022-12-20T00:26:06;3.20;99.90
1379;DHT22;683;48.738;9.226;2022-12-20T00:28:35;3.10;99.90
1379;DHT22;683;48.738;9.226;2022-12-20T00:31:03;3.10;99.90
1379;DHT22;683;48.738;9.226;2022-12-20T00:33:34;3.00;99.90
1379;DHT22;683;48.738;9.226;2022-12-20T00:36:03;3.00;99.90
1379;DHT22;683;48.738;9.226;2022-12-20T00:38:30;3.00;99.90
1379;DHT22;683;48.738;9.226;2022-12-20T00:40:59;2.90;99.90
1379;DHT22;683;48.738;9.226;2022-12-20T00:43:27;2.80;99.90
1379;DHT22;683;48.738;9.226;2022-12-20T00:45:54;2.70;99.90
1379;DHT22;683;48.738;9.226;2022-12-20T00:48:22;2.70;99.90
1379;DHT22;683;48.738;9.226;2022-12-20T00:50:51;2.60;99.90
1379;DHT22;683;48.738;9.226;2022-12-20T00:53:18;2.70;99.90
1379;DHT22;683;48.738;9.226;2022-12-20T00:55:45;2.70;99.90
1379;DHT22;683;48.738;9.226;2022-12-20T00:58:13;2.70;99.90
1379;DHT22;683;48.738;9.226;2022-12-20T01:00:40;2.70;99.90
1379;DHT22;683;48.738;9.226;2022-12-20T01:03:08;2.70;99.90
1379;DHT22;683;48.738;9.226;2022-12-20T01:05:35;2.80;99.90
1379;DHT22;683;48.738;9.226;2022-12-20T01:08:04;2.80;99.90
1379;DHT22;683;48.738;9.226;2022-12-20T01:10:32;2.80;99.90
1379;DHT22;683;48.738;9.226;2022-12-20T01:12:59;2.80;99.90
1379;DHT22;683;48.738;9.226;2022-12-20T01:15:26;2.80;99.90
1379;DHT22;683;48.738;9.226;2022-12-20T01:17:54;2.80;99.90
1379;DHT22;683;48.738;9.226;2022-12-20T01:20:22;2.80;99.90
1379;DHT22;683;48.738;9.226;2022-12-20T01:22:49;2.80;99.90
1379;DHT22;683;48.738;9.226;2022-12-20T01:25:19;2.80;99.90
1379;DHT22;683;48.738;9.226;2022-12-20T01:27:46;2.80;99.90
1379;DHT22;683;48.738;9.226;2022-12-20T01:30:14;2.80;99.90
1379;DHT22;683;48.738;9.226;2022-12-20T01:32:41;2.80;99.90
1379;DHT22;683;48.738;9.226;2022-12-20T01:35:09;2.90;99.90
1379;DHT22;683;48.738;9.226;2022-12-20T01:37:36;3.00;99.90
1379;DHT22;683;48.738;9.226;2022-12-20T01:40:04;3.00;99.90
1379;DHT22;683;48.738;9.226;2022-12-20T01:42:33;3.00;99.90
1379;DHT22;683;48.738;9.226;2022-12-20T01:45:01;3.00;99.90
1379;DHT22;683;48.738;9.226;2022-12-20T01:47:31;2.90;99.90
1379;DHT22;683;48.738;9.226;2022-12-20T01:50:02;2.90;99.90
1379;DHT22;683;48.738;9.226;2022-12-20T01:52:33;2.90;99.90
1379;DHT22;683;48.738;9.226;2022-12-20T01:55:06;2.90;99.90
1379;DHT22;683;48.738;9.226;2022-12-20T01:57:41;2.90;99.90
1379;DHT22;683;48.738;9.226;2022-12-20T02:00:11;2.90;99.90
1379;DHT22;683;48.738;9.226;2022-12-20T02:02:42;2.90;99.90
1379;DHT22;683;48.738;9.226;2022-12-20T02:05:09;2.80;99.90
1379;DHT22;683;48.738;9.226;2022-12-20T02:07:40;2.90;99.90
1379;DHT22;683;48.738;9.226;2022-12-20T02:10:10;2.90;99.90
1379;DHT22;683;48.738;9.226;2022-12-20T02:12:41;2.90;99.90
1379;DHT22;683;48.738;9.226;2022-12-20T02:15:23;2.90;99.90
1379;DHT22;683;48.738;9.226;2022-12-20T02:18:07;2.90;99.90
1379;DHT22;683;48.738;9.226;2022-12-20T02:24:02;2.90;99.90
1379;DHT22;683;48.738;9.226;2022-12-20T02:29:32;2.80;99.90
1379;DHT22;683;48.738;9.226;2022-12-20T02:32:08;2.80;99.90
1379;DHT22;683;48.738;9.226;2022-12-20T02:34:39;2.80;99.90
1379;DHT22;683;48.738;9.226;2022-12-20T02:37:07;2.80;99.90
1379;DHT22;683;48.738;9.226;2022-12-20T02:39:37;2.90;99.90
1379;DHT22;683;48.738;9.226;2022-12-20T02:42:06;2.80;99.90
1379;DHT22;683;48.738;9.226;2022-12-20T02:44:38;2.70;99.90
1379;DHT22;683;48.738;9.226;2022-12-20T02:47:31;2.70;99.90
1379;DHT22;683;48.738;9.226;2022-12-20T02:50:02;2.70;99.90
1379;DHT22;683;48.738;9.226;2022-12-20T02:52:30;2.70;99.90
1379;DHT22;683;48.738;9.226;2022-12-20T02:54:59;2.70;99.90
1379;DHT22;683;48.738;9.226;2022-12-20T02:57:35;2.70;99.90
1379;DHT22;683;48.738;9.226;2022-12-20T03:00:06;2.70;99.90
1379;DHT22;683;48.738;9.226;2022-12-20T03:02:36;2.70;99.90
1379;DHT22;683;48.738;9.226;2022-12-20T03:05:20;2.60;99.90
1379;DHT22;683;48.738;9.226;2022-12-20T03:07:48;2.60;99.90
1379;DHT22;683;48.738;9.226;2022-12-20T03:10:18;2.70;99.90
1379;DHT22;683;48.738;9.226;2022-12-20T03:12:46;2.70;99.90
1379;DHT22;683;48.738;9.226;2022-12-20T03:15:14;2.60;99.90
1379;DHT22;683;48.738;9.226;2022-12-20T03:17:43;2.70;99.90
1379;DHT22;683;48.738;9.226;2022-12-20T03:20:11;2.70;99.90
1379;DHT22;683;48.738;9.226;2022-12-20T03:22:38;2.70;99.90
1379;DHT22;683;48.738;9.226;2022-12-20T03:25:06;2.70;99.90
1379;DHT22;683;48.738;9.226;2022-12-20T03:27:34;2.80;99.90
1379;DHT22;683;48.738;9.226;2022-12-20T03:30:03;2.90;99.90
1379;DHT22;683;48.738;9.226;2022-12-20T03:32:34;2.90;99.90
1379;DHT22;683;48.738;9.226;2022-12-20T03:35:03;2.90;99.90
1379;DHT22;683;48.738;9.226;2022-12-20T03:37:35;2.90;99.90
1379;DHT22;683;48.738;9.226;2022-12-20T03:40:05;3.00;99.90
1379;DHT22;683;48.738;9.226;2022-12-20T03:42:32;3.10;99.90
1379;DHT22;683;48.738;9.226;2022-12-20T03:45:00;3.20;99.90
1379;DHT22;683;48.738;9.226;2022-12-20T03:47:29;3.20;99.90
1379;DHT22;683;48.738;9.226;2022-12-20T03:49:57;3.30;99.90
1379;DHT22;683;48.738;9.226;2022-12-20T03:52:26;3.30;99.90
1379;DHT22;683;48.738;9.226;2022-12-20T03:54:54;3.40;99.90
1379;DHT22;683;48.738;9.226;2022-12-20T03:57:28;3.50;99.90
1379;DHT22;683;48.738;9.226;2022-12-20T03:59:56;3.50;99.90
1379;DHT22;683;48.738;9.226;2022-12-20T04:02:24;3.60;99.90
1379;DHT22;683;48.738;9.226;2022-12-20T04:04:52;3.60;99.90
1379;DHT22;683;48.738;9.226;2022-12-20T04:07:20;3.60;99.90
1379;DHT22;683;48.738;9.226;2022-12-20T04:09:49;3.60;99.90
1379;DHT22;683;48.738;9.226;2022-12-20T04:12:16;3.50;99.90
1379;DHT22;683;48.738;9.226;2022-12-20T04:14:44;3.50;99.90
1379;DHT22;683;48.738;9.226;2022-12-20T04:17:12;3.40;99.90
1379;DHT22;683;48.738;9.226;2022-12-20T04:19:40;3.40;99.90
1379;DHT22;683;48.738;9.226;2022-12-20T04:22:08;3.40;99.90
1379;DHT22;683;48.738;9.226;2022-12-20T04:24:46;3.40;99.90
1379;DHT22;683;48.738;9.226;2022-12-20T04:27:23;3.40;99.90
1379;DHT22;683;48.738;9.226;2022-12-20T04:29:52;3.50;99.90
1379;DHT22;683;48.738;9.226;2022-12-20T04:32:21;3.50;99.90
1379;DHT22;683;48.738;9.226;2022-12-20T04:34:48;3.50;99.90
1379;DHT22;683;48.738;9.226;2022-12-20T04:37:16;3.50;99.90
1379;DHT22;683;48.738;9.226;2022-12-20T04:39:51;3.50;99.90
1379;DHT22;683;48.738;9.226;2022-12-20T04:42:41;3.60;99.90
1379;DHT22;683;48.738;9.226;2022-12-20T04:45:11;3.60;99.90
1379;DHT22;683;48.738;9.226;2022-12-20T04:47:38;3.70;99.90
1379;DHT22;683;48.738;9.226;2022-12-20T04:50:07;3.70;99.90
1379;DHT22;683;48.738;9.226;2022-12-20T04:52:37;3.70;99.90
1379;DHT22;683;48.738;9.226;2022-12-20T04:55:21;3.70;99.90
1379;DHT22;683;48.738;9.226;2022-12-20T04:57:50;3.80;99.90
1379;DHT22;683;48.738;9.226;2022-12-20T05:00:18;3.80;99.90
1379;DHT22;683;48.738;9.226;2022-12-20T05:02:52;3.80;99.90
1379;DHT22;683;48.738;9.226;2022-12-20T05:05:22;3.90;99.90
1379;DHT22;683;48.738;9.226;2022-12-20T05:07:52;3.90;99.90
1379;DHT22;683;48.738;9.226;2022-12-20T05:10:20;4.00;99.90
1379;DHT22;683;48.738;9.226;2022-12-20T05:12:50;4.10;99.90
1379;DHT22;683;48.738;9.226;2022-12-20T05:15:29;4.20;99.90
1379;DHT22;683;48.738;9.226;2022-12-20T05:17:57;4.30;99.90
1379;DHT22;683;48.738;9.226;2022-12-20T05:20:28;4.30;99.90
1379;DHT22;683;48.738;9.226;2022-12-20T05:22:58;4.40;99.90
1379;DHT22;683;48.738;9.226;2022-12-20T05:25:47;4.40;99.90
1379;DHT22;683;48.738;9.226;2022-12-20T05:28:34;4.50;99.90
1379;DHT22;683;48.738;9.226;2022-12-20T05:31:01;4.50;99.90
1379;DHT22;683;48.738;9.226;2022-12-20T05:33:31;4.50;99.90
1379;DHT22;683;48.738;9.226;2022-12-20T05:36:00;4.60;99.90
1379;DHT22;683;48.738;9.226;2022-12-20T05:38:27;4.60;99.90
1379;DHT22;683;48.738;9.226;2022-12-20T05:40:55;4.70;99.90
1379;DHT22;683;48.738;9.226;2022-12-20T05:43:22;4.70;99.90
1379;DHT22;683;48.738;9.226;2022-12-20T05:45:52;4.70;99.90
1379;DHT22;683;48.738;9.226;2022-12-20T05:48:28;4.70;99.90
1379;DHT22;683;48.738;9.226;2022-12-20T05:50:56;4.80;99.90
1379;DHT22;683;48.738;9.226;2022-12-20T05:53:38;4.80;99.90
1379;DHT22;683;48.738;9.226;2022-12-20T05:56:06;4.80;99.90
1379;DHT22;683;48.738;9.226;2022-12-20T05:58:37;4.90;99.90
1379;DHT22;683;48.738;9.226;2022-12-20T06:01:07;5.00;99.90
1379;DHT22;683;48.738;9.226;2022-12-20T06:03:37;4.90;99.90
1379;DHT22;683;48.738;9.226;2022-12-20T06:06:09;4.90;99.90
1379;DHT22;683;48.738;9.226;2022-12-20T06:08:36;4.90;99.90
1379;DHT22;683;48.738;9.226;2022-12-20T06:11:08;4.90;99.90
1379;DHT22;683;48.738;9.226;2022-12-20T06:13:45;4.80;99.90
1379;DHT22;683;48.738;9.226;2022-12-20T06:16:14;4.80;99.90
1379;DHT22;683;48.738;9.226;2022-12-20T06:18:44;4.80;99.90
1379;DHT22;683;48.738;9.226;2022-12-20T06:21:12;4.70;99.90
1379;DHT22;683;48.738;9.226;2022-12-20T06:23:39;4.70;99.90
1379;DHT22;683;48.738;9.226;2022-12-20T06:26:10;4.70;99.90
1379;DHT22;683;48.738;9.226;2022-12-20T06:28:49;4.70;99.90
1379;DHT22;683;48.738;9.226;2022-12-20T06:31:23;4.70;99.90
1379;DHT22;683;48.738;9.226;2022-12-20T06:33:52;4.70;99.90
1379;DHT22;683;48.738;9.226;2022-12-20T06:36:22;4.70;99.90
1379;DHT22;683;48.738;9.226;2022-12-20T06:38:50;4.80;99.90
1379;DHT22;683;48.738;9.226;2022-12-20T06:41:17;4.80;99.90
1379;DHT22;683;48.738;9.226;2022-12-20T06:43:45;4.90;99.90
1379;DHT22;683;48.738;9.226;2022-12-20T06:46:13;4.90;99.90
1379;DHT22;683;48.738;9.226;2022-12-20T06:48:41;4.90;99.90
1379;DHT22;683;48.738;9.226;2022-12-20T06:51:10;4.90;99.90
1379;DHT22;683;48.738;9.226;2022-12-20T06:53:38;4.90;99.90
1379;DHT22;683;48.738;9.226;2022-12-20T06:56:06;4.80;99.90
1379;DHT22;683;48.738;9.226;2022-12-20T06:58:33;4.80;99.90
1379;DHT22;683;48.738;9.226;2022-12-20T07:01:00;4.80;99.90
1379;DHT22;683;48.738;9.226;2022-12-20T07:03:28;4.80;99.90
1379;DHT22;683;48.738;9.226;2022-12-20T07:05:56;4.80;99.90
1379;DHT22;683;48.738;9.226;2022-12-20T07:08:24;4.80;99.90
1379;DHT22;683;48.738;9.226;2022-12-20T07:10:51;4.80;99.90
1379;DHT22;683;48.738;9.226;2022-12-20T07:13:19;4.80;99.90
1379;DHT22;683;48.738;9.226;2022-12-20T07:15:48;4.80;99.90
1379;DHT22;683;48.738;9.226;2022-12-20T07:18:15;4.90;99.90
1379;DHT22;683;48.738;9.226;2022-12-20T07:20:42;4.90;99.90
1379;DHT22;683;48.738;9.226;2022-12-20T07:23:11;4.90;99.90
1379;DHT22;683;48.738;9.226;2022-12-20T07:25:38;4.90;99.90
1379;DHT22;683;48.738;9.226;2022-12-20T07:28:06;4.90;99.90
1379;DHT22;683;48.738;9.226;2022-12-20T07:30:33;4.90;99.90
1379;DHT22;683;48.738;9.226;2022-12-20T07:33:00;4.90;99.90
1379;DHT22;683;48.738;9.226;2022-12-20T07:35:27;4.90;99.90
1379;DHT22;683;48.738;9.226;2022-12-20T07:37:54;4.90;99.90
1379;DHT22;683;48.738;9.226;2022-12-20T07:40:23;4.90;99.90
1379;DHT22;683;48.738;9.226;2022-12-20T07:42:51;4.90;99.90
1379;DHT22;683;48.738;9.226;2022-12-20T07:45:18;5.00;99.90
1379;DHT22;683;48.738;9.226;2022-12-20T07:47:45;5.10;99.90
1379;DHT22;683;48.738;9.226;2022-12-20T07:50:13;5.10;99.90
1379;DHT22;683;48.738;9.226;2022-12-20T07:52:43;5.20;99.90
1379;DHT22;683;48.738;9.226;2022-12-20T07:55:13;5.20;99.90
1379;DHT22;683;48.738;9.226;2022-12-20T07:57:43;5.20;99.90
1379;DHT22;683;48.738;9.226;2022-12-20T08:00:13;5.30;99.90
1379;DHT22;683;48.738;9.226;2022-12-20T08:02:44;5.40;99.90
1379;DHT22;683;48.738;9.226;2022-12-20T08:05:13;5.40;99.90
1379;DHT22;683;48.738;9.226;2022-12-20T08:07:41;5.40;99.90
1379;DHT22;683;48.738;9.226;2022-12-20T08:10:11;5.40;99.90
1379;DHT22;683;48.738;9.226;2022-12-20T08:12:42;5.40;99.90
1379;DHT22;683;48.738;9.226;2022-12-20T08:15:11;5.50;99.90
1379;DHT22;683;48.738;9.226;2022-12-20T08:17:38;5.50;99.90
1379;DHT22;683;48.738;9.226;2022-12-20T08:20:06;5.60;99.90
1379;DHT22;683;48.738;9.226;2022-12-20T08:22:34;5.60;99.90
1379;DHT22;683;48.738;9.226;2022-12-20T08:25:01;5.60;99.90
1379;DHT22;683;48.738;9.226;2022-12-20T08:27:29;5.60;99.90
1379;DHT22;683;48.738;9.226;2022-12-20T08:29:58;5.70;99.90
1379;DHT22;683;48.738;9.226;2022-12-20T08:32:25;5.70;99.90
1379;DHT22;683;48.738;9.226;2022-12-20T08:34:54;5.80;99.90
1379;DHT22;683;48.738;9.226;2022-12-20T08:37:21;5.90;99.90
1379;DHT22;683;48.738;9.226;2022-12-20T08:39:48;5.90;99.90
1379;DHT22;683;48.738;9.226;2022-12-20T08:42:15;6.00;99.90
1379;DHT22;683;48.738;9.226;2022-12-20T08:44:43;6.10;99.90
1379;DHT22;683;48.738;9.226;2022-12-20T08:47:11;6.20;99.90
1379;DHT22;683;48.738;9.226;2022-12-20T08:49:39;6.20;99.90
1379;DHT22;683;48.738;9.226;2022-12-20T08:52:07;6.20;99.90
1379;DHT22;683;48.738;9.226;2022-12-20T08:54:34;6.20;99.90
1379;DHT22;683;48.738;9.226;2022-12-20T08:57:02;6.30;99.90
1379;DHT22;683;48.738;9.226;2022-12-20T08:59:29;6.30;99.90
1379;DHT22;683;48.738;9.226;2022-12-20T09:01:56;6.40;99.90
1379;DHT22;683;48.738;9.226;2022-12-20T09:04:25;6.50;99.90
1379;DHT22;683;48.738;9.226;2022-12-20T09:06:52;6.50;99.90
1379;DHT22;683;48.738;9.226;2022-12-20T09:09:20;6.60;99.90
1379;DHT22;683;48.738;9.226;2022-12-20T09:11:47;6.60;99.90
1379;DHT22;683;48.738;9.226;2022-12-20T09:14:14;6.70;99.90
1379;DHT22;683;48.738;9.226;2022-12-20T09:16:42;6.80;99.90
1379;DHT22;683;48.738;9.226;2022-12-20T09:19:11;6.70;99.90
1379;DHT22;683;48.738;9.226;2022-12-20T09:21:40;6.70;99.90
1379;DHT22;683;48.738;9.226;2022-12-20T09:24:09;6.70;99.90
1379;DHT22;683;48.738;9.226;2022-12-20T09:26:37;6.60;99.90
1379;DHT22;683;48.738;9.226;2022-12-20T09:29:05;6.50;99.90
1379;DHT22;683;48.738;9.226;2022-12-20T09:31:33;6.60;99.90
1379;DHT22;683;48.738;9.226;2022-12-20T09:34:02;6.60;99.90
1379;DHT22;683;48.738;9.226;2022-12-20T09:36:30;6.60;99.90
1379;DHT22;683;48.738;9.226;2022-12-20T09:38:58;6.50;99.90
1379;DHT22;683;48.738;9.226;2022-12-20T09:41:30;6.40;99.90
1379;DHT22;683;48.738;9.226;2022-12-20T09:44:03;6.40;99.90
1379;DHT22;683;48.738;9.226;2022-12-20T09:46:31;6.30;99.90
1379;DHT22;683;48.738;9.226;2022-12-20T09:48:59;6.30;99.90
1379;DHT22;683;48.738;9.226;2022-12-20T09:51:39;6.50;99.90
1379;DHT22;683;48.738;9.226;2022-12-20T09:54:18;6.60;99.90
1379;DHT22;683;48.738;9.226;2022-12-20T09:56:56;6.70;99.90
1379;DHT22;683;48.738;9.226;2022-12-20T09:59:24;6.80;99.90
1379;DHT22;683;48.738;9.226;2022-12-20T10:01:51;6.90;99.90
1379;DHT22;683;48.738;9.226;2022-12-20T10:04:21;6.90;99.90
1379;DHT22;683;48.738;9.226;2022-12-20T10:07:08;7.10;99.90
1379;DHT22;683;48.738;9.226;2022-12-20T10:10:02;7.20;99.90
1379;DHT22;683;48.738;9.226;2022-12-20T10:12:45;7.20;99.90
1379;DHT22;683;48.738;9.226;2022-12-20T10:15:20;7.30;99.90
1379;DHT22;683;48.738;9.226;2022-12-20T10:18:16;7.30;99.90
1379;DHT22;683;48.738;9.226;2022-12-20T10:20:56;7.30;99.90
1379;DHT22;683;48.738;9.226;2022-12-20T10:23:31;7.30;99.90
1379;DHT22;683;48.738;9.226;2022-12-20T10:26:01;7.30;99.90
1379;DHT22;683;48.738;9.226;2022-12-20T10:28:32;7.30;99.90
1379;DHT22;683;48.738;9.226;2022-12-20T10:31:02;7.30;99.90
1379;DHT22;683;48.738;9.226;2022-12-20T10:33:30;7.40;99.90
1379;DHT22;683;48.738;9.226;2022-12-20T10:36:19;7.40;99.90
1379;DHT22;683;48.738;9.226;2022-12-20T10:38:50;7.40;99.90
1379;DHT22;683;48.738;9.226;2022-12-20T10:41:20;7.50;99.90
1379;DHT22;683;48.738;9.226;2022-12-20T10:43:53;7.40;99.90
1379;DHT22;683;48.738;9.226;2022-12-20T10:46:22;7.40;99.90
1379;DHT22;683;48.738;9.226;2022-12-20T10:49:29;7.40;99.90
1379;DHT22;683;48.738;9.226;2022-12-20T10:51:58;7.30;99.90
1379;DHT22;683;48.738;9.226;2022-12-20T10:54:54;7.30;99.90
1379;DHT22;683;48.738;9.226;2022-12-20T10:57:24;7.30;99.90
1379;DHT22;683;48.738;9.226;2022-12-20T10:59:54;7.20;99.90
1379;DHT22;683;48.738;9.226;2022-12-20T11:02:26;7.10;99.90
1379;DHT22;683;48.738;9.226;2022-12-20T11:04:58;7.10;99.90
1379;DHT22;683;48.738;9.226;2022-12-20T11:07:28;7.10;99.90
1379;DHT22;683;48.738;9.226;2022-12-20T11:09:58;7.10;99.90
1379;DHT22;683;48.738;9.226;2022-12-20T11:12:56;7.10;99.90
1379;DHT22;683;48.738;9.226;2022-12-20T11:16:20;7.10;99.90
1379;DHT22;683;48.738;9.226;2022-12-20T11:18:55;7.20;99.90
1379;DHT22;683;48.738;9.226;2022-12-20T11:21:32;7.20;99.90
1379;DHT22;683;48.738;9.226;2022-12-20T11:24:10;7.30;99.90
1379;DHT22;683;48.738;9.226;2022-12-20T11:26:52;7.30;99.90
1379;DHT22;683;48.738;9.226;2022-12-20T11:35:53;7.40;99.90
1379;DHT22;683;48.738;9.226;2022-12-20T11:38:30;7.50;99.90
1379;DHT22;683;48.738;9.226;2022-12-20T11:41:10;7.60;99.90
1379;DHT22;683;48.738;9.226;2022-12-20T11:43:57;7.60;99.90
1379;DHT22;683;48.738;9.226;2022-12-20T11:46:42;7.70;99.90
1379;DHT22;683;48.738;9.226;2022-12-20T11:52:22;7.80;99.90
1379;DHT22;683;48.738;9.226;2022-12-20T11:54:57;7.90;99.90
1379;DHT22;683;48.738;9.226;2022-12-20T11:57:33;8.00;99.90
1379;DHT22;683;48.738;9.226;2022-12-20T12:00:04;8.10;99.90
1379;DHT22;683;48.738;9.226;2022-12-20T12:02:44;8.10;99.90
1379;DHT22;683;48.738;9.226;2022-12-20T12:05:17;8.10;99.90
1379;DHT22;683;48.738;9.226;2022-12-20T12:07:48;8.20;99.90
1379;DHT22;683;48.738;9.226;2022-12-20T12:10:21;8.30;99.90
1379;DHT22;683;48.738;9.226;2022-12-20T12:12:54;8.30;99.90
1379;DHT22;683;48.738;9.226;2022-12-20T12:15:29;8.30;99.90
1379;DHT22;683;48.738;9.226;2022-12-20T12:18:01;8.20;99.90
1379;DHT22;683;48.738;9.226;2022-12-20T12:20:38;8.20;99.90
1379;DHT22;683;48.738;9.226;2022-12-20T12:23:13;8.20;99.90
1379;DHT22;683;48.738;9.226;2022-12-20T12:25:44;8.20;99.90
1379;DHT22;683;48.738;9.226;2022-12-20T12:28:12;8.10;99.90
1379;DHT22;683;48.738;9.226;2022-12-20T12:30:43;8.10;99.90
1379;DHT22;683;48.738;9.226;2022-12-20T12:33:15;8.00;99.90
1379;DHT22;683;48.738;9.226;2022-12-20T12:39:28;8.10;99.90
1379;DHT22;683;48.738;9.226;2022-12-20T12:42:14;8.20;99.90
1379;DHT22;683;48.738;9.226;2022-12-20T12:44:53;8.20;99.90
1379;DHT22;683;48.738;9.226;2022-12-20T12:47:28;8.20;99.90
1379;DHT22;683;48.738;9.226;2022-12-20T12:50:02;8.20;99.90
1379;DHT22;683;48.738;9.226;2022-12-20T12:52:41;8.20;99.90
1379;DHT22;683;48.738;9.226;2022-12-20T12:55:40;8.20;99.90
1379;DHT22;683;48.738;9.226;2022-12-20T12:58:36;8.30;99.90
1379;DHT22;683;48.738;9.226;2022-12-20T13:01:08;8.30;99.90
1379;DHT22;683;48.738;9.226;2022-12-20T13:03:42;8.30;99.90
1379;DHT22;683;48.738;9.226;2022-12-20T13:06:50;8.30;99.90
1379;DHT22;683;48.738;9.226;2022-12-20T13:09:35;8.40;99.90
1379;DHT22;683;48.738;9.226;2022-12-20T13:12:46;8.30;99.90
1379;DHT22;683;48.738;9.226;2022-12-20T13:18:32;8.20;99.90
1379;DHT22;683;48.738;9.226;2022-12-20T13:21:39;8.20;99.90
1379;DHT22;683;48.738;9.226;2022-12-20T13:24:44;8.10;99.90
1379;DHT22;683;48.738;9.226;2022-12-20T13:27:45;8.20;99.90
1379;DHT22;683;48.738;9.226;2022-12-20T13:30:35;8.10;99.90
1379;DHT22;683;48.738;9.226;2022-12-20T13:33:18;8.00;99.90
1379;DHT22;683;48.738;9.226;2022-12-20T13:35:58;8.00;99.90
1379;DHT22;683;48.738;9.226;2022-12-20T13:38:52;8.00;99.90
1379;DHT22;683;48.738;9.226;2022-12-20T13:45:26;8.00;99.90
1379;DHT22;683;48.738;9.226;2022-12-20T13:47:55;8.00;99.90
1379;DHT22;683;48.738;9.226;2022-12-20T13:50:28;7.90;99.90
1379;DHT22;683;48.738;9.226;2022-12-20T13:52:57;7.90;99.90
1379;DHT22;683;48.738;9.226;2022-12-20T13:55:31;7.90;99.90
1379;DHT22;683;48.738;9.226;2022-12-20T13:58:09;7.90;99.90
1379;DHT22;683;48.738;9.226;2022-12-20T14:00:40;8.00;99.90
1379;DHT22;683;48.738;9.226;2022-12-20T14:03:19;8.00;99.90
1379;DHT22;683;48.738;9.226;2022-12-20T14:05:46;8.00;99.90
1379;DHT22;683;48.738;9.226;2022-12-20T14:08:16;8.10;99.90
1379;DHT22;683;48.738;9.226;2022-12-20T14:10:44;8.10;99.90
1379;DHT22;683;48.738;9.226;2022-12-20T14:13:19;8.10;99.90
1379;DHT22;683;48.738;9.226;2022-12-20T14:15:49;8.10;99.90
1379;DHT22;683;48.738;9.226;2022-12-20T14:18:18;8.10;99.90
1379;DHT22;683;48.738;9.226;2022-12-20T14:20:48;8.10;99.90
1379;DHT22;683;48.738;9.226;2022-12-20T14:23:18;8.10;99.90
1379;DHT22;683;48.738;9.226;2022-12-20T14:25:47;8.10;99.90
1379;DHT22;683;48.738;9.226;2022-12-20T14:28:24;8.00;99.90
1379;DHT22;683;48.738;9.226;2022-12-20T14:30:55;8.00;99.90
1379;DHT22;683;48.738;9.226;2022-12-20T14:33:33;7.90;99.90
1379;DHT22;683;48.738;9.226;2022-12-20T14:36:08;7.90;99.90
1379;DHT22;683;48.738;9.226;2022-12-20T14:38:36;7.90;99.90
1379;DHT22;683;48.738;9.226;2022-12-20T14:41:23;7.80;99.90
1379;DHT22;683;48.738;9.226;2022-12-20T14:43:56;7.90;99.90
1379;DHT22;683;48.738;9.226;2022-12-20T14:46:25;7.90;99.90
1379;DHT22;683;48.738;9.226;2022-12-20T14:49:07;7.90;99.90
1379;DHT22;683;48.738;9.226;2022-12-20T14:51:37;7.90;99.90
1379;DHT22;683;48.738;9.226;2022-12-20T14:54:05;7.80;99.90
1379;DHT22;683;48.738;9.226;2022-12-20T14:56:33;7.80;99.90
1379;DHT22;683;48.738;9.226;2022-12-20T14:59:05;7.80;99.90
1379;DHT22;683;48.738;9.226;2022-12-20T15:01:36;7.70;99.90
1379;DHT22;683;48.738;9.226;2022-12-20T15:04:21;7.70;99.90
1379;DHT22;683;48.738;9.226;2022-12-20T15:06:50;7.60;99.90
1379;DHT22;683;48.738;9.226;2022-12-20T15:09:28;7.60;99.90
1379;DHT22;683;48.738;9.226;2022-12-20T15:11:56;7.50;99.90
1379;DHT22;683;48.738;9.226;2022-12-20T15:14:34;7.50;99.90
1379;DHT22;683;48.738;9.226;2022-12-20T15:17:08;7.40;99.90
1379;DHT22;683;48.738;9.226;2022-12-20T15:19:35;7.30;99.90
1379;DHT22;683;48.738;9.226;2022-12-20T15:22:03;7.30;99.90
1379;DHT22;683;48.738;9.226;2022-12-20T15:24:31;7.20;99.90
1379;DHT22;683;48.738;9.226;2022-12-20T15:26:58;7.10;99.90
1379;DHT22;683;48.738;9.226;2022-12-20T15:29:26;7.10;99.90
1379;DHT22;683;48.738;9.226;2022-12-20T15:32:03;7.10;99.90
1379;DHT22;683;48.738;9.226;2022-12-20T15:34:33;7.10;99.90
1379;DHT22;683;48.738;9.226;2022-12-20T15:37:02;7.00;99.90
1379;DHT22;683;48.738;9.226;2022-12-20T15:39:30;7.10;99.90
1379;DHT22;683;48.738;9.226;2022-12-20T15:41:59;7.10;99.90
1379;DHT22;683;48.738;9.226;2022-12-20T15:44:29;7.10;99.90
1379;DHT22;683;48.738;9.226;2022-12-20T15:46:57;7.00;99.90
1379;DHT22;683;48.738;9.226;2022-12-20T15:49:28;7.00;99.90
1379;DHT22;683;48.738;9.226;2022-12-20T15:51:56;7.00;99.90
1379;DHT22;683;48.738;9.226;2022-12-20T15:54:26;6.90;99.90
1379;DHT22;683;48.738;9.226;2022-12-20T15:56:53;6.80;99.90
1379;DHT22;683;48.738;9.226;2022-12-20T15:59:20;6.80;99.90
1379;DHT22;683;48.738;9.226;2022-12-20T16:01:51;6.70;99.90
1379;DHT22;683;48.738;9.226;2022-12-20T16:04:20;6.70;99.90
1379;DHT22;683;48.738;9.226;2022-12-20T16:06:51;6.70;99.90
1379;DHT22;683;48.738;9.226;2022-12-20T16:09:19;6.70;99.90
1379;DHT22;683;48.738;9.226;2022-12-20T16:11:47;6.70;99.90
1379;DHT22;683;48.738;9.226;2022-12-20T16:14:18;6.70;99.90
1379;DHT22;683;48.738;9.226;2022-12-20T16:16:46;6.60;99.90
1379;DHT22;683;48.738;9.226;2022-12-20T16:19:14;6.60;99.90
1379;DHT22;683;48.738;9.226;2022-12-20T16:21:44;6.50;99.90
1379;DHT22;683;48.738;9.226;2022-12-20T16:24:16;6.50;99.90
1379;DHT22;683;48.738;9.226;2022-12-20T16:26:43;6.60;99.90
1379;DHT22;683;48.738;9.226;2022-12-20T16:29:11;6.60;99.90
1379;DHT22;683;48.738;9.226;2022-12-20T16:31:47;6.60;99.90
1379;DHT22;683;48.738;9.226;2022-12-20T16:34:16;6.70;99.90
1379;DHT22;683;48.738;9.226;2022-12-20T16:36:45;6.70;99.90
1379;DHT22;683;48.738;9.226;2022-12-20T16:39:14;6.70;99.90
1379;DHT22;683;48.738;9.226;2022-12-20T16:45:18;6.70;99.90
1379;DHT22;683;48.738;9.226;2022-12-20T16:47:46;6.60;99.90
1379;DHT22;683;48.738;9.226;2022-12-20T16:50:14;6.60;99.90
1379;DHT22;683;48.738;9.226;2022-12-20T16:52:42;6.60;99.90
1379;DHT22;683;48.738;9.226;2022-12-20T16:55:40;6.50;99.90
1379;DHT22;683;48.738;9.226;2022-12-20T16:58:24;6.50;99.90
1379;DHT22;683;48.738;9.226;2022-12-20T17:00:52;6.50;99.90
1379;DHT22;683;48.738;9.226;2022-12-20T17:03:19;6.60;99.90
1379;DHT22;683;48.738;9.226;2022-12-20T17:05:46;6.60;99.90
1379;DHT22;683;48.738;9.226;2022-12-20T17:08:13;6.60;99.90
1379;DHT22;683;48.738;9.226;2022-12-20T17:10:42;6.60;99.90
1379;DHT22;683;48.738;9.226;2022-12-20T17:13:10;6.50;99.90
1379;DHT22;683;48.738;9.226;2022-12-20T17:15:38;6.60;99.90
1379;DHT22;683;48.738;9.226;2022-12-20T17:18:07;6.50;99.90
1379;DHT22;683;48.738;9.226;2022-12-20T17:20:34;6.60;99.90
1379;DHT22;683;48.738;9.226;2022-12-20T17:23:12;6.60;99.90
1379;DHT22;683;48.738;9.226;2022-12-20T17:25:43;6.60;99.90
1379;DHT22;683;48.738;9.226;2022-12-20T17:28:10;6.70;99.90
1379;DHT22;683;48.738;9.226;2022-12-20T17:30:38;6.70;99.90
1379;DHT22;683;48.738;9.226;2022-12-20T17:33:05;6.70;99.90
1379;DHT22;683;48.738;9.226;2022-12-20T17:35:32;6.70;99.90